Huvudsida
METAR-TAF:

METAR-TAF

Flygplatser :

M. O. Ranchi

Ranchi, Indien

latitud: 23-18-51N, longitud: 85-19-18E, höjd: 646 m

Aktuellt väderrapport

Denna rapport gjordes för 31 minuter sedan, klockan 09:00 UTC
Vind 6 kt från ost/sydost
Temperatur 34°C
Fuktighet 47%
Tryck 1007 hPa
Sikt: 5000 m
Spridda moln på en höjd av 2000 ft
Spridda moln på en höjd av 2500 ft
Få moln på en höjd av 3000 ft, Cumulonimbus.
Brutna moln på en höjd av 10000 ft
åska,

METAR: VERC 200900Z 11006KT 5000 TS SCT020 SCT025 FEW030CB BKN100 34/21 Q1007 NOSIG

Tid: 15:01 (09:31 UTC)

Väderprognos

Denna rapport gjordes för 1 timme och 31 minuter sedan, klockan 08:00 UTC
Prognos gäller från 20 kl. 09 UTC till 20 kl. 18 UTC
Vind 5 kt från nordväst
Sikt: 6000 m
Spridda moln på en höjd av 1800 ft
Spridda moln på en höjd av 10000 ft
Blir
från 20 kl. 15 UTC till 20 kl. 17 UTC
Vind kt från nord
Sikt: 4000 m
torrdis,

TAF: VERC 200800Z 2009/2018 32005KT 6000 SCT018 SCT100 BECMG 2015/2017 00000KT 4000 HZ

Aktuella väderrapporter och prognoser från 4000 flygplatser (METAR- och TAF-rapporter).

De tillgängliga stationerna syns som gula och röda prickar på kartan.

För musen över prickarna för att se namnen på stationerna.

Klicka sedan för att få väderrapporter och prognoser.

För att ändra kartan: Klicka på de gröna knapparna med ett svart kors på för att zooma in; den gröna knappen med ett streck på för att zooma ut; eller på de gröna pilarna för angränsande kartor.


METAR-TAF: